sensor_id;sensor_type;location;lat;lon;timestamp;P1;durP1;ratioP1;P2;durP2;ratioP2
27632;SDS011;15046;50.930;13.334;2023-04-24T00:00:01;8.52;;;3.60;;
27632;SDS011;15046;50.930;13.334;2023-04-24T00:02:30;7.82;;;3.78;;
27632;SDS011;15046;50.930;13.334;2023-04-24T00:04:57;5.85;;;3.78;;
27632;SDS011;15046;50.930;13.334;2023-04-24T00:07:28;9.57;;;4.50;;
27632;SDS011;15046;50.930;13.334;2023-04-24T00:09:54;5.35;;;3.63;;
27632;SDS011;15046;50.930;13.334;2023-04-24T00:12:20;6.78;;;3.90;;
27632;SDS011;15046;50.930;13.334;2023-04-24T00:14:46;7.43;;;4.43;;
27632;SDS011;15046;50.930;13.334;2023-04-24T00:17:12;6.75;;;3.80;;
27632;SDS011;15046;50.930;13.334;2023-04-24T00:19:38;7.47;;;3.97;;
27632;SDS011;15046;50.930;13.334;2023-04-24T00:22:03;7.28;;;3.78;;
27632;SDS011;15046;50.930;13.334;2023-04-24T00:24:30;7.43;;;4.03;;
27632;SDS011;15046;50.930;13.334;2023-04-24T00:26:56;6.25;;;4.10;;
27632;SDS011;15046;50.930;13.334;2023-04-24T00:29:22;8.02;;;4.88;;
27632;SDS011;15046;50.930;13.334;2023-04-24T00:31:48;5.65;;;3.92;;
27632;SDS011;15046;50.930;13.334;2023-04-24T00:34:13;7.97;;;4.53;;
27632;SDS011;15046;50.930;13.334;2023-04-24T00:36:39;8.50;;;4.80;;
27632;SDS011;15046;50.930;13.334;2023-04-24T00:39:05;6.90;;;4.00;;
27632;SDS011;15046;50.930;13.334;2023-04-24T00:41:33;6.85;;;4.22;;
27632;SDS011;15046;50.930;13.334;2023-04-24T00:44:00;6.97;;;4.25;;
27632;SDS011;15046;50.930;13.334;2023-04-24T00:46:26;10.98;;;4.38;;
27632;SDS011;15046;50.930;13.334;2023-04-24T00:48:52;7.68;;;3.95;;
27632;SDS011;15046;50.930;13.334;2023-04-24T00:51:17;6.88;;;4.05;;
27632;SDS011;15046;50.930;13.334;2023-04-24T00:53:43;6.70;;;3.78;;
27632;SDS011;15046;50.930;13.334;2023-04-24T00:56:09;7.63;;;3.65;;
27632;SDS011;15046;50.930;13.334;2023-04-24T00:58:35;7.75;;;4.07;;
27632;SDS011;15046;50.930;13.334;2023-04-24T01:01:02;8.15;;;3.60;;
27632;SDS011;15046;50.930;13.334;2023-04-24T01:03:32;5.95;;;3.38;;
27632;SDS011;15046;50.930;13.334;2023-04-24T01:05:59;6.32;;;2.88;;
27632;SDS011;15046;50.930;13.334;2023-04-24T01:08:25;4.70;;;2.83;;
27632;SDS011;15046;50.930;13.334;2023-04-24T01:10:53;5.68;;;3.08;;
27632;SDS011;15046;50.930;13.334;2023-04-24T01:13:20;5.07;;;2.88;;
27632;SDS011;15046;50.930;13.334;2023-04-24T01:15:46;5.75;;;3.17;;
27632;SDS011;15046;50.930;13.334;2023-04-24T01:18:12;3.47;;;2.05;;
27632;SDS011;15046;50.930;13.334;2023-04-24T01:20:42;5.88;;;2.70;;
27632;SDS011;15046;50.930;13.334;2023-04-24T01:23:10;4.95;;;2.45;;
27632;SDS011;15046;50.930;13.334;2023-04-24T01:25:36;3.38;;;1.92;;
27632;SDS011;15046;50.930;13.334;2023-04-24T01:28:02;4.70;;;2.50;;
27632;SDS011;15046;50.930;13.334;2023-04-24T01:30:29;6.13;;;2.15;;
27632;SDS011;15046;50.930;13.334;2023-04-24T01:35:43;4.07;;;2.55;;
27632;SDS011;15046;50.930;13.334;2023-04-24T01:38:09;4.10;;;2.40;;
27632;SDS011;15046;50.930;13.334;2023-04-24T01:40:34;5.68;;;2.03;;
27632;SDS011;15046;50.930;13.334;2023-04-24T01:43:00;4.35;;;1.90;;
27632;SDS011;15046;50.930;13.334;2023-04-24T01:45:26;3.80;;;2.00;;
27632;SDS011;15046;50.930;13.334;2023-04-24T01:47:52;4.50;;;2.20;;
27632;SDS011;15046;50.930;13.334;2023-04-24T01:50:18;3.45;;;1.92;;
27632;SDS011;15046;50.930;13.334;2023-04-24T01:52:44;3.13;;;1.77;;
27632;SDS011;15046;50.930;13.334;2023-04-24T01:55:10;4.25;;;1.40;;
27632;SDS011;15046;50.930;13.334;2023-04-24T01:57:36;2.85;;;1.58;;
27632;SDS011;15046;50.930;13.334;2023-04-24T02:00:03;4.82;;;1.85;;
27632;SDS011;15046;50.930;13.334;2023-04-24T02:02:30;3.13;;;1.50;;
27632;SDS011;15046;50.930;13.334;2023-04-24T02:04:56;3.95;;;1.63;;
27632;SDS011;15046;50.930;13.334;2023-04-24T02:07:22;3.15;;;1.55;;
27632;SDS011;15046;50.930;13.334;2023-04-24T02:09:48;3.80;;;1.30;;
27632;SDS011;15046;50.930;13.334;2023-04-24T02:12:14;2.45;;;1.13;;
27632;SDS011;15046;50.930;13.334;2023-04-24T02:14:41;4.93;;;1.58;;
27632;SDS011;15046;50.930;13.334;2023-04-24T02:17:07;4.13;;;1.60;;
27632;SDS011;15046;50.930;13.334;2023-04-24T02:19:33;2.75;;;1.40;;
27632;SDS011;15046;50.930;13.334;2023-04-24T02:21:59;3.95;;;1.52;;
27632;SDS011;15046;50.930;13.334;2023-04-24T02:24:24;2.58;;;1.38;;
27632;SDS011;15046;50.930;13.334;2023-04-24T02:26:50;4.18;;;1.40;;
27632;SDS011;15046;50.930;13.334;2023-04-24T02:29:16;2.78;;;1.35;;
27632;SDS011;15046;50.930;13.334;2023-04-24T02:31:42;3.60;;;1.33;;
27632;SDS011;15046;50.930;13.334;2023-04-24T02:34:08;2.42;;;1.05;;
27632;SDS011;15046;50.930;13.334;2023-04-24T02:36:34;2.75;;;1.20;;
27632;SDS011;15046;50.930;13.334;2023-04-24T02:39:00;2.65;;;1.10;;
27632;SDS011;15046;50.930;13.334;2023-04-24T02:41:26;3.30;;;1.50;;
27632;SDS011;15046;50.930;13.334;2023-04-24T02:43:57;1.83;;;1.05;;
27632;SDS011;15046;50.930;13.334;2023-04-24T02:46:24;5.32;;;1.33;;
27632;SDS011;15046;50.930;13.334;2023-04-24T02:48:50;3.22;;;1.17;;
27632;SDS011;15046;50.930;13.334;2023-04-24T02:51:16;2.45;;;1.00;;
27632;SDS011;15046;50.930;13.334;2023-04-24T02:53:42;2.22;;;1.25;;
27632;SDS011;15046;50.930;13.334;2023-04-24T02:56:07;2.60;;;1.00;;
27632;SDS011;15046;50.930;13.334;2023-04-24T02:58:33;1.65;;;0.90;;
27632;SDS011;15046;50.930;13.334;2023-04-24T03:01:00;2.85;;;1.55;;
27632;SDS011;15046;50.930;13.334;2023-04-24T03:03:26;2.03;;;0.75;;
27632;SDS011;15046;50.930;13.334;2023-04-24T03:05:52;2.65;;;1.05;;
27632;SDS011;15046;50.930;13.334;2023-04-24T03:08:17;3.55;;;1.25;;
27632;SDS011;15046;50.930;13.334;2023-04-24T03:10:43;1.95;;;1.05;;
27632;SDS011;15046;50.930;13.334;2023-04-24T03:13:09;2.25;;;1.10;;
27632;SDS011;15046;50.930;13.334;2023-04-24T03:15:35;2.92;;;1.33;;
27632;SDS011;15046;50.930;13.334;2023-04-24T03:18:00;2.25;;;1.00;;
27632;SDS011;15046;50.930;13.334;2023-04-24T03:20:27;2.47;;;1.17;;
27632;SDS011;15046;50.930;13.334;2023-04-24T03:22:53;2.80;;;1.13;;
27632;SDS011;15046;50.930;13.334;2023-04-24T03:25:19;3.65;;;1.30;;
27632;SDS011;15046;50.930;13.334;2023-04-24T03:27:45;2.03;;;0.95;;
27632;SDS011;15046;50.930;13.334;2023-04-24T03:30:11;2.95;;;1.10;;
27632;SDS011;15046;50.930;13.334;2023-04-24T03:32:37;3.65;;;1.15;;
27632;SDS011;15046;50.930;13.334;2023-04-24T03:35:04;2.33;;;1.13;;
27632;SDS011;15046;50.930;13.334;2023-04-24T03:37:33;2.70;;;1.50;;
27632;SDS011;15046;50.930;13.334;2023-04-24T03:39:59;2.22;;;1.20;;
27632;SDS011;15046;50.930;13.334;2023-04-24T03:42:26;3.20;;;1.13;;
27632;SDS011;15046;50.930;13.334;2023-04-24T03:44:51;2.67;;;1.20;;
27632;SDS011;15046;50.930;13.334;2023-04-24T03:47:17;3.08;;;1.00;;
27632;SDS011;15046;50.930;13.334;2023-04-24T03:49:43;2.83;;;1.25;;
27632;SDS011;15046;50.930;13.334;2023-04-24T03:52:08;2.13;;;1.27;;
27632;SDS011;15046;50.930;13.334;2023-04-24T03:54:34;2.38;;;1.10;;
27632;SDS011;15046;50.930;13.334;2023-04-24T03:57:00;3.03;;;1.42;;
27632;SDS011;15046;50.930;13.334;2023-04-24T03:59:26;2.38;;;1.10;;
27632;SDS011;15046;50.930;13.334;2023-04-24T04:01:52;2.42;;;1.23;;
27632;SDS011;15046;50.930;13.334;2023-04-24T04:04:18;4.85;;;1.60;;
27632;SDS011;15046;50.930;13.334;2023-04-24T04:06:43;3.25;;;1.65;;
27632;SDS011;15046;50.930;13.334;2023-04-24T04:09:09;3.15;;;1.55;;
27632;SDS011;15046;50.930;13.334;2023-04-24T04:11:35;3.97;;;1.75;;
27632;SDS011;15046;50.930;13.334;2023-04-24T04:14:01;2.63;;;1.00;;
27632;SDS011;15046;50.930;13.334;2023-04-24T04:16:27;1.77;;;1.13;;
27632;SDS011;15046;50.930;13.334;2023-04-24T04:18:53;2.42;;;1.20;;
27632;SDS011;15046;50.930;13.334;2023-04-24T04:21:19;3.20;;;1.30;;
27632;SDS011;15046;50.930;13.334;2023-04-24T04:23:45;3.05;;;1.02;;
27632;SDS011;15046;50.930;13.334;2023-04-24T04:26:10;3.72;;;1.27;;
27632;SDS011;15046;50.930;13.334;2023-04-24T04:28:37;8.38;;;1.45;;
27632;SDS011;15046;50.930;13.334;2023-04-24T04:31:04;4.47;;;1.40;;
27632;SDS011;15046;50.930;13.334;2023-04-24T04:33:30;3.33;;;1.30;;
27632;SDS011;15046;50.930;13.334;2023-04-24T04:35:56;3.03;;;1.20;;
27632;SDS011;15046;50.930;13.334;2023-04-24T04:38:22;4.80;;;1.20;;
27632;SDS011;15046;50.930;13.334;2023-04-24T04:40:48;3.53;;;1.35;;
27632;SDS011;15046;50.930;13.334;2023-04-24T04:43:14;2.72;;;1.17;;
27632;SDS011;15046;50.930;13.334;2023-04-24T04:45:41;2.08;;;1.00;;
27632;SDS011;15046;50.930;13.334;2023-04-24T04:48:08;2.03;;;0.98;;
27632;SDS011;15046;50.930;13.334;2023-04-24T04:50:37;2.83;;;1.20;;
27632;SDS011;15046;50.930;13.334;2023-04-24T04:53:03;2.88;;;1.00;;
27632;SDS011;15046;50.930;13.334;2023-04-24T04:55:30;2.80;;;0.95;;
27632;SDS011;15046;50.930;13.334;2023-04-24T04:57:56;3.72;;;1.40;;
27632;SDS011;15046;50.930;13.334;2023-04-24T05:00:22;2.35;;;1.20;;
27632;SDS011;15046;50.930;13.334;2023-04-24T05:02:51;2.72;;;1.10;;
27632;SDS011;15046;50.930;13.334;2023-04-24T05:05:17;3.30;;;1.27;;
27632;SDS011;15046;50.930;13.334;2023-04-24T05:07:43;2.53;;;1.02;;
27632;SDS011;15046;50.930;13.334;2023-04-24T05:10:09;1.77;;;1.00;;
27632;SDS011;15046;50.930;13.334;2023-04-24T05:12:35;7.65;;;1.27;;
27632;SDS011;15046;50.930;13.334;2023-04-24T05:15:01;3.47;;;1.33;;
27632;SDS011;15046;50.930;13.334;2023-04-24T05:17:28;7.55;;;1.45;;
27632;SDS011;15046;50.930;13.334;2023-04-24T05:19:54;4.53;;;1.77;;
27632;SDS011;15046;50.930;13.334;2023-04-24T05:22:20;3.63;;;1.20;;
27632;SDS011;15046;50.930;13.334;2023-04-24T05:24:46;4.28;;;1.30;;
27632;SDS011;15046;50.930;13.334;2023-04-24T05:27:12;4.93;;;1.30;;
27632;SDS011;15046;50.930;13.334;2023-04-24T05:29:38;2.63;;;1.02;;
27632;SDS011;15046;50.930;13.334;2023-04-24T05:32:05;3.00;;;1.00;;
27632;SDS011;15046;50.930;13.334;2023-04-24T05:34:31;6.82;;;1.92;;
27632;SDS011;15046;50.930;13.334;2023-04-24T05:36:57;2.05;;;1.00;;
27632;SDS011;15046;50.930;13.334;2023-04-24T05:39:23;3.40;;;0.98;;
27632;SDS011;15046;50.930;13.334;2023-04-24T05:41:52;2.45;;;0.90;;
27632;SDS011;15046;50.930;13.334;2023-04-24T05:44:18;2.22;;;1.15;;
27632;SDS011;15046;50.930;13.334;2023-04-24T05:46:43;2.83;;;1.05;;
27632;SDS011;15046;50.930;13.334;2023-04-24T05:49:09;7.07;;;2.30;;
27632;SDS011;15046;50.930;13.334;2023-04-24T05:51:35;5.60;;;2.10;;
27632;SDS011;15046;50.930;13.334;2023-04-24T05:54:01;6.07;;;2.35;;
27632;SDS011;15046;50.930;13.334;2023-04-24T05:56:28;5.13;;;1.83;;
27632;SDS011;15046;50.930;13.334;2023-04-24T05:58:54;4.85;;;1.40;;
27632;SDS011;15046;50.930;13.334;2023-04-24T06:01:20;4.78;;;1.45;;
27632;SDS011;15046;50.930;13.334;2023-04-24T06:03:46;1.50;;;1.00;;
27632;SDS011;15046;50.930;13.334;2023-04-24T06:06:12;1.58;;;1.00;;
27632;SDS011;15046;50.930;13.334;2023-04-24T06:08:38;3.70;;;1.20;;
27632;SDS011;15046;50.930;13.334;2023-04-24T06:11:04;8.77;;;1.40;;
27632;SDS011;15046;50.930;13.334;2023-04-24T06:13:29;6.65;;;1.70;;
27632;SDS011;15046;50.930;13.334;2023-04-24T06:15:55;4.35;;;1.35;;
27632;SDS011;15046;50.930;13.334;2023-04-24T06:18:21;2.75;;;0.90;;
27632;SDS011;15046;50.930;13.334;2023-04-24T06:20:47;3.92;;;1.10;;
27632;SDS011;15046;50.930;13.334;2023-04-24T06:23:13;5.57;;;1.00;;
27632;SDS011;15046;50.930;13.334;2023-04-24T06:25:38;2.90;;;1.20;;
27632;SDS011;15046;50.930;13.334;2023-04-24T06:28:04;2.90;;;1.27;;
27632;SDS011;15046;50.930;13.334;2023-04-24T06:30:30;2.15;;;1.20;;
27632;SDS011;15046;50.930;13.334;2023-04-24T06:32:56;3.10;;;0.90;;
27632;SDS011;15046;50.930;13.334;2023-04-24T06:35:22;3.88;;;1.00;;
27632;SDS011;15046;50.930;13.334;2023-04-24T06:37:48;2.90;;;0.90;;
27632;SDS011;15046;50.930;13.334;2023-04-24T06:40:14;3.13;;;1.48;;
27632;SDS011;15046;50.930;13.334;2023-04-24T06:42:40;4.45;;;0.88;;
27632;SDS011;15046;50.930;13.334;2023-04-24T06:45:06;2.67;;;0.90;;
27632;SDS011;15046;50.930;13.334;2023-04-24T06:47:32;3.10;;;1.00;;
27632;SDS011;15046;50.930;13.334;2023-04-24T06:49:58;2.60;;;0.60;;
27632;SDS011;15046;50.930;13.334;2023-04-24T06:52:24;3.33;;;1.00;;
27632;SDS011;15046;50.930;13.334;2023-04-24T06:54:50;1.70;;;0.88;;
27632;SDS011;15046;50.930;13.334;2023-04-24T06:57:16;2.15;;;1.02;;
27632;SDS011;15046;50.930;13.334;2023-04-24T06:59:42;2.22;;;0.82;;
27632;SDS011;15046;50.930;13.334;2023-04-24T07:02:08;1.60;;;0.70;;
27632;SDS011;15046;50.930;13.334;2023-04-24T07:04:34;2.25;;;0.77;;
27632;SDS011;15046;50.930;13.334;2023-04-24T07:07:00;3.28;;;0.90;;
27632;SDS011;15046;50.930;13.334;2023-04-24T07:09:26;5.20;;;1.10;;
27632;SDS011;15046;50.930;13.334;2023-04-24T07:11:52;3.97;;;0.70;;
27632;SDS011;15046;50.930;13.334;2023-04-24T07:14:18;1.00;;;0.68;;
27632;SDS011;15046;50.930;13.334;2023-04-24T07:16:45;3.95;;;0.80;;
27632;SDS011;15046;50.930;13.334;2023-04-24T07:19:12;5.60;;;1.40;;
27632;SDS011;15046;50.930;13.334;2023-04-24T07:21:38;2.78;;;0.90;;
27632;SDS011;15046;50.930;13.334;2023-04-24T07:24:04;2.45;;;0.95;;
27632;SDS011;15046;50.930;13.334;2023-04-24T07:26:34;2.30;;;0.82;;
27632;SDS011;15046;50.930;13.334;2023-04-24T07:29:00;2.58;;;0.90;;
27632;SDS011;15046;50.930;13.334;2023-04-24T07:31:26;1.85;;;0.80;;
27632;SDS011;15046;50.930;13.334;2023-04-24T07:33:52;2.22;;;0.90;;
27632;SDS011;15046;50.930;13.334;2023-04-24T07:36:17;3.45;;;1.63;;
27632;SDS011;15046;50.930;13.334;2023-04-24T07:38:44;2.63;;;0.80;;
27632;SDS011;15046;50.930;13.334;2023-04-24T07:41:11;2.00;;;1.02;;
27632;SDS011;15046;50.930;13.334;2023-04-24T07:43:38;3.42;;;1.25;;
27632;SDS011;15046;50.930;13.334;2023-04-24T07:46:03;3.15;;;0.98;;
27632;SDS011;15046;50.930;13.334;2023-04-24T07:48:29;2.20;;;1.00;;
27632;SDS011;15046;50.930;13.334;2023-04-24T07:50:55;3.00;;;0.80;;
27632;SDS011;15046;50.930;13.334;2023-04-24T07:53:21;2.70;;;1.20;;
27632;SDS011;15046;50.930;13.334;2023-04-24T07:55:47;4.00;;;0.65;;
27632;SDS011;15046;50.930;13.334;2023-04-24T07:58:13;3.08;;;1.00;;
27632;SDS011;15046;50.930;13.334;2023-04-24T08:00:38;4.50;;;0.95;;
27632;SDS011;15046;50.930;13.334;2023-04-24T08:03:04;4.40;;;0.90;;
27632;SDS011;15046;50.930;13.334;2023-04-24T08:05:30;2.25;;;0.82;;
27632;SDS011;15046;50.930;13.334;2023-04-24T08:07:56;5.10;;;1.90;;
27632;SDS011;15046;50.930;13.334;2023-04-24T08:10:22;1.67;;;0.85;;
27632;SDS011;15046;50.930;13.334;2023-04-24T08:12:48;3.28;;;1.13;;
27632;SDS011;15046;50.930;13.334;2023-04-24T08:15:14;2.05;;;0.80;;
27632;SDS011;15046;50.930;13.334;2023-04-24T08:17:40;1.42;;;0.73;;
27632;SDS011;15046;50.930;13.334;2023-04-24T08:20:08;3.17;;;1.02;;
27632;SDS011;15046;50.930;13.334;2023-04-24T08:22:38;3.53;;;0.95;;
27632;SDS011;15046;50.930;13.334;2023-04-24T08:25:08;2.85;;;1.00;;
27632;SDS011;15046;50.930;13.334;2023-04-24T08:27:35;5.68;;;1.20;;
27632;SDS011;15046;50.930;13.334;2023-04-24T08:30:04;1.65;;;0.70;;
27632;SDS011;15046;50.930;13.334;2023-04-24T08:32:31;1.83;;;0.68;;
27632;SDS011;15046;50.930;13.334;2023-04-24T08:34:57;2.78;;;0.90;;
27632;SDS011;15046;50.930;13.334;2023-04-24T08:37:25;3.60;;;0.65;;
27632;SDS011;15046;50.930;13.334;2023-04-24T08:39:52;2.13;;;0.60;;
27632;SDS011;15046;50.930;13.334;2023-04-24T08:42:18;2.17;;;0.60;;
27632;SDS011;15046;50.930;13.334;2023-04-24T08:44:45;1.33;;;0.68;;
27632;SDS011;15046;50.930;13.334;2023-04-24T08:47:13;0.85;;;0.60;;
27632;SDS011;15046;50.930;13.334;2023-04-24T08:49:40;3.40;;;1.00;;
27632;SDS011;15046;50.930;13.334;2023-04-24T08:52:07;1.77;;;0.80;;
27632;SDS011;15046;50.930;13.334;2023-04-24T08:54:34;5.13;;;1.50;;
27632;SDS011;15046;50.930;13.334;2023-04-24T08:57:01;2.38;;;0.93;;
27632;SDS011;15046;50.930;13.334;2023-04-24T08:59:32;2.75;;;0.80;;
27632;SDS011;15046;50.930;13.334;2023-04-24T09:04:25;3.15;;;0.77;;
27632;SDS011;15046;50.930;13.334;2023-04-24T09:06:55;2.65;;;0.70;;
27632;SDS011;15046;50.930;13.334;2023-04-24T09:09:23;2.63;;;0.80;;
27632;SDS011;15046;50.930;13.334;2023-04-24T09:11:50;4.00;;;0.90;;
27632;SDS011;15046;50.930;13.334;2023-04-24T09:14:18;2.33;;;0.88;;
27632;SDS011;15046;50.930;13.334;2023-04-24T09:16:45;1.80;;;0.70;;
27632;SDS011;15046;50.930;13.334;2023-04-24T09:19:12;1.85;;;0.80;;
27632;SDS011;15046;50.930;13.334;2023-04-24T09:21:37;1.02;;;0.65;;
27632;SDS011;15046;50.930;13.334;2023-04-24T09:24:07;2.42;;;1.00;;
27632;SDS011;15046;50.930;13.334;2023-04-24T09:26:39;1.80;;;1.02;;
27632;SDS011;15046;50.930;13.334;2023-04-24T09:29:05;1.52;;;0.63;;
27632;SDS011;15046;50.930;13.334;2023-04-24T09:31:31;3.65;;;0.70;;
27632;SDS011;15046;50.930;13.334;2023-04-24T09:33:58;2.35;;;0.70;;
27632;SDS011;15046;50.930;13.334;2023-04-24T09:36:28;3.85;;;1.00;;
27632;SDS011;15046;50.930;13.334;2023-04-24T09:39:00;2.80;;;0.75;;
27632;SDS011;15046;50.930;13.334;2023-04-24T09:41:27;3.50;;;1.13;;
27632;SDS011;15046;50.930;13.334;2023-04-24T09:43:56;2.08;;;0.70;;
27632;SDS011;15046;50.930;13.334;2023-04-24T09:46:30;2.20;;;1.00;;
27632;SDS011;15046;50.930;13.334;2023-04-24T09:49:05;5.63;;;0.90;;
27632;SDS011;15046;50.930;13.334;2023-04-24T09:51:38;4.43;;;1.25;;
27632;SDS011;15046;50.930;13.334;2023-04-24T09:54:07;1.83;;;0.77;;
27632;SDS011;15046;50.930;13.334;2023-04-24T09:56:48;2.15;;;1.00;;
27632;SDS011;15046;50.930;13.334;2023-04-24T09:59:16;2.30;;;0.70;;
27632;SDS011;15046;50.930;13.334;2023-04-24T10:01:43;3.80;;;0.90;;
27632;SDS011;15046;50.930;13.334;2023-04-24T10:04:16;1.30;;;0.60;;
27632;SDS011;15046;50.930;13.334;2023-04-24T10:06:47;1.85;;;0.70;;
27632;SDS011;15046;50.930;13.334;2023-04-24T10:09:14;3.05;;;0.85;;
27632;SDS011;15046;50.930;13.334;2023-04-24T10:11:45;1.10;;;0.50;;
27632;SDS011;15046;50.930;13.334;2023-04-24T10:14:13;3.58;;;1.27;;
27632;SDS011;15046;50.930;13.334;2023-04-24T10:16:40;1.65;;;0.60;;
27632;SDS011;15046;50.930;13.334;2023-04-24T10:19:07;1.65;;;0.80;;
27632;SDS011;15046;50.930;13.334;2023-04-24T10:21:33;3.33;;;1.15;;
27632;SDS011;15046;50.930;13.334;2023-04-24T10:24:00;2.35;;;0.90;;
27632;SDS011;15046;50.930;13.334;2023-04-24T10:26:29;2.63;;;0.68;;
27632;SDS011;15046;50.930;13.334;2023-04-24T10:28:57;1.48;;;0.47;;
27632;SDS011;15046;50.930;13.334;2023-04-24T10:31:23;3.92;;;1.08;;
27632;SDS011;15046;50.930;13.334;2023-04-24T10:33:50;2.35;;;0.80;;
27632;SDS011;15046;50.930;13.334;2023-04-24T10:36:18;2.03;;;0.50;;
27632;SDS011;15046;50.930;13.334;2023-04-24T10:38:47;2.53;;;0.50;;
27632;SDS011;15046;50.930;13.334;2023-04-24T10:41:15;2.60;;;0.50;;
27632;SDS011;15046;50.930;13.334;2023-04-24T10:43:48;1.33;;;0.50;;
27632;SDS011;15046;50.930;13.334;2023-04-24T10:46:37;0.85;;;0.60;;
27632;SDS011;15046;50.930;13.334;2023-04-24T10:49:05;1.70;;;0.60;;
27632;SDS011;15046;50.930;13.334;2023-04-24T10:54:41;1.52;;;0.57;;
27632;SDS011;15046;50.930;13.334;2023-04-24T10:59:45;1.45;;;0.63;;
27632;SDS011;15046;50.930;13.334;2023-04-24T11:02:15;1.02;;;0.57;;
27632;SDS011;15046;50.930;13.334;2023-04-24T11:04:41;1.52;;;0.70;;
27632;SDS011;15046;50.930;13.334;2023-04-24T11:07:08;3.95;;;0.77;;
27632;SDS011;15046;50.930;13.334;2023-04-24T11:09:35;1.90;;;0.80;;
27632;SDS011;15046;50.930;13.334;2023-04-24T11:12:05;1.88;;;0.80;;
27632;SDS011;15046;50.930;13.334;2023-04-24T11:17:30;1.30;;;0.60;;
27632;SDS011;15046;50.930;13.334;2023-04-24T11:22:34;2.75;;;0.75;;
27632;SDS011;15046;50.930;13.334;2023-04-24T11:25:04;1.98;;;0.57;;
27632;SDS011;15046;50.930;13.334;2023-04-24T11:27:33;1.52;;;0.80;;
27632;SDS011;15046;50.930;13.334;2023-04-24T11:30:05;1.48;;;0.70;;
27632;SDS011;15046;50.930;13.334;2023-04-24T11:32:36;1.85;;;0.70;;
27632;SDS011;15046;50.930;13.334;2023-04-24T11:35:04;1.77;;;0.55;;
27632;SDS011;15046;50.930;13.334;2023-04-24T11:40:03;1.35;;;0.70;;
27632;SDS011;15046;50.930;13.334;2023-04-24T11:42:38;1.17;;;0.63;;
27632;SDS011;15046;50.930;13.334;2023-04-24T11:47:41;1.95;;;0.80;;
27632;SDS011;15046;50.930;13.334;2023-04-24T11:50:09;1.20;;;0.52;;
27632;SDS011;15046;50.930;13.334;2023-04-24T11:52:40;0.90;;;0.60;;
27632;SDS011;15046;50.930;13.334;2023-04-24T11:55:07;2.65;;;0.80;;
27632;SDS011;15046;50.930;13.334;2023-04-24T11:57:41;1.40;;;0.75;;
27632;SDS011;15046;50.930;13.334;2023-04-24T12:00:14;1.95;;;0.90;;
27632;SDS011;15046;50.930;13.334;2023-04-24T12:02:41;11.35;;;1.55;;
27632;SDS011;15046;50.930;13.334;2023-04-24T12:05:07;1.88;;;0.85;;
27632;SDS011;15046;50.930;13.334;2023-04-24T12:07:42;1.58;;;0.80;;
27632;SDS011;15046;50.930;13.334;2023-04-24T12:10:08;1.52;;;0.82;;
27632;SDS011;15046;50.930;13.334;2023-04-24T12:12:34;0.90;;;0.57;;
27632;SDS011;15046;50.930;13.334;2023-04-24T12:15:00;1.55;;;0.80;;
27632;SDS011;15046;50.930;13.334;2023-04-24T12:17:32;3.47;;;0.82;;
27632;SDS011;15046;50.930;13.334;2023-04-24T12:20:06;1.98;;;0.90;;
27632;SDS011;15046;50.930;13.334;2023-04-24T12:25:25;2.22;;;0.90;;
27632;SDS011;15046;50.930;13.334;2023-04-24T12:27:55;2.22;;;0.90;;
27632;SDS011;15046;50.930;13.334;2023-04-24T12:30:44;2.15;;;0.90;;
27632;SDS011;15046;50.930;13.334;2023-04-24T12:33:20;1.52;;;0.77;;
27632;SDS011;15046;50.930;13.334;2023-04-24T12:35:47;2.25;;;0.80;;
27632;SDS011;15046;50.930;13.334;2023-04-24T12:38:15;2.20;;;0.98;;
27632;SDS011;15046;50.930;13.334;2023-04-24T12:40:42;1.70;;;0.90;;
27632;SDS011;15046;50.930;13.334;2023-04-24T12:43:12;1.63;;;0.95;;
27632;SDS011;15046;50.930;13.334;2023-04-24T12:45:43;1.67;;;0.80;;
27632;SDS011;15046;50.930;13.334;2023-04-24T12:48:10;3.97;;;0.98;;
27632;SDS011;15046;50.930;13.334;2023-04-24T12:50:36;1.90;;;0.70;;
27632;SDS011;15046;50.930;13.334;2023-04-24T12:53:03;2.17;;;1.00;;
27632;SDS011;15046;50.930;13.334;2023-04-24T12:55:29;2.85;;;1.10;;
27632;SDS011;15046;50.930;13.334;2023-04-24T12:57:54;3.60;;;1.27;;
27632;SDS011;15046;50.930;13.334;2023-04-24T13:00:21;1.95;;;0.90;;
27632;SDS011;15046;50.930;13.334;2023-04-24T13:02:47;2.03;;;1.10;;
27632;SDS011;15046;50.930;13.334;2023-04-24T13:05:12;2.45;;;0.90;;
27632;SDS011;15046;50.930;13.334;2023-04-24T13:07:39;1.38;;;0.80;;
27632;SDS011;15046;50.930;13.334;2023-04-24T13:10:05;2.00;;;0.80;;
27632;SDS011;15046;50.930;13.334;2023-04-24T13:12:31;1.58;;;0.80;;
27632;SDS011;15046;50.930;13.334;2023-04-24T13:14:57;2.22;;;0.90;;
27632;SDS011;15046;50.930;13.334;2023-04-24T13:17:23;1.80;;;0.93;;
27632;SDS011;15046;50.930;13.334;2023-04-24T13:19:50;2.08;;;0.85;;
27632;SDS011;15046;50.930;13.334;2023-04-24T13:22:17;4.72;;;0.82;;
27632;SDS011;15046;50.930;13.334;2023-04-24T13:24:46;2.20;;;0.90;;
27632;SDS011;15046;50.930;13.334;2023-04-24T13:27:13;4.88;;;0.90;;
27632;SDS011;15046;50.930;13.334;2023-04-24T13:29:40;1.30;;;0.85;;
27632;SDS011;15046;50.930;13.334;2023-04-24T13:32:06;2.88;;;1.00;;
27632;SDS011;15046;50.930;13.334;2023-04-24T13:34:32;2.80;;;1.25;;
27632;SDS011;15046;50.930;13.334;2023-04-24T13:36:59;3.47;;;1.35;;
27632;SDS011;15046;50.930;13.334;2023-04-24T13:39:25;3.67;;;1.27;;
27632;SDS011;15046;50.930;13.334;2023-04-24T13:41:52;3.70;;;1.10;;
27632;SDS011;15046;50.930;13.334;2023-04-24T13:44:21;2.13;;;1.10;;
27632;SDS011;15046;50.930;13.334;2023-04-24T13:46:49;3.22;;;1.23;;
27632;SDS011;15046;50.930;13.334;2023-04-24T13:49:16;4.03;;;1.30;;
27632;SDS011;15046;50.930;13.334;2023-04-24T13:51:43;1.70;;;1.08;;
27632;SDS011;15046;50.930;13.334;2023-04-24T13:54:10;2.10;;;1.00;;
27632;SDS011;15046;50.930;13.334;2023-04-24T13:56:36;1.98;;;0.90;;
27632;SDS011;15046;50.930;13.334;2023-04-24T13:59:03;3.22;;;1.00;;
27632;SDS011;15046;50.930;13.334;2023-04-24T14:01:29;1.52;;;0.93;;
27632;SDS011;15046;50.930;13.334;2023-04-24T14:03:55;3.63;;;1.20;;
27632;SDS011;15046;50.930;13.334;2023-04-24T14:06:21;2.83;;;1.20;;
27632;SDS011;15046;50.930;13.334;2023-04-24T14:08:48;2.58;;;1.00;;
27632;SDS011;15046;50.930;13.334;2023-04-24T14:11:15;2.13;;;1.10;;
27632;SDS011;15046;50.930;13.334;2023-04-24T14:13:42;1.85;;;0.90;;
27632;SDS011;15046;50.930;13.334;2023-04-24T14:16:08;3.15;;;1.50;;
27632;SDS011;15046;50.930;13.334;2023-04-24T14:18:34;3.35;;;1.55;;
27632;SDS011;15046;50.930;13.334;2023-04-24T14:21:01;1.85;;;1.25;;
27632;SDS011;15046;50.930;13.334;2023-04-24T14:23:30;2.70;;;1.20;;
27632;SDS011;15046;50.930;13.334;2023-04-24T14:25:59;2.00;;;1.05;;
27632;SDS011;15046;50.930;13.334;2023-04-24T14:28:25;5.55;;;1.40;;
27632;SDS011;15046;50.930;13.334;2023-04-24T14:30:54;2.35;;;1.08;;
27632;SDS011;15046;50.930;13.334;2023-04-24T14:33:19;1.95;;;1.20;;
27632;SDS011;15046;50.930;13.334;2023-04-24T14:35:45;3.20;;;1.10;;
27632;SDS011;15046;50.930;13.334;2023-04-24T14:38:11;2.40;;;1.00;;
27632;SDS011;15046;50.930;13.334;2023-04-24T14:40:37;2.13;;;1.00;;
27632;SDS011;15046;50.930;13.334;2023-04-24T14:43:03;1.98;;;1.17;;
27632;SDS011;15046;50.930;13.334;2023-04-24T14:45:29;1.73;;;1.02;;
27632;SDS011;15046;50.930;13.334;2023-04-24T14:47:55;3.35;;;1.10;;
27632;SDS011;15046;50.930;13.334;2023-04-24T14:50:21;2.10;;;1.10;;
27632;SDS011;15046;50.930;13.334;2023-04-24T14:52:47;3.28;;;1.23;;
27632;SDS011;15046;50.930;13.334;2023-04-24T14:55:13;1.33;;;0.82;;